Time;durP1;ratioP1;P1;durP2;ratioP2;P2;SDS_P1;SDS_P2;PMS_P1;PMS_P2;Temp;Humidity;BMP_temperature;BMP_pressure;BME280_temperature;BME280_humidity;BME280_pressure;Samples;Min_cycle;Max_cycle;Signal;HPM_P1;HPM_P2
2022/08/06 00:01:52;;;;;;;7.68;4.97;;;;;;;21.59;50.54;95284.22;5045917;28;20143;-75
2022/08/06 00:04:17;;;;;;;7.03;4.90;;;;;;;21.59;50.07;95286.13;5045624;28;20029;-76
2022/08/06 00:06:43;;;;;;;5.63;4.65;;;;;;;21.63;50.11;95279.09;5045773;28;20420;-75
2022/08/06 00:09:08;;;;;;;6.20;5.22;;;;;;;21.60;50.41;95290.50;5045677;28;20029;-75
2022/08/06 00:11:34;;;;;;;8.90;5.20;;;;;;;21.58;50.35;95287.19;5044499;28;20029;-76
2022/08/06 00:13:59;;;;;;;10.93;5.03;;;;;;;21.60;51.12;95291.31;5045767;28;20546;-76
2022/08/06 00:16:25;;;;;;;8.00;5.15;;;;;;;21.59;51.04;95294.31;5045775;28;20049;-75
2022/08/06 00:18:50;;;;;;;5.95;4.60;;;;;;;21.57;50.44;95300.00;5045921;28;20544;-76
2022/08/06 00:21:16;;;;;;;7.25;4.80;;;;;;;21.50;51.11;95293.91;5045398;28;20025;-76
2022/08/06 00:23:41;;;;;;;6.97;5.05;;;;;;;21.49;51.92;95297.69;5046110;28;20091;-76
2022/08/06 00:26:07;;;;;;;6.78;4.80;;;;;;;21.45;51.31;95302.00;5045734;28;20029;-75
2022/08/06 00:28:32;;;;;;;7.70;5.20;;;;;;;21.39;51.48;95295.66;5050205;28;20539;-75
2022/08/06 00:31:01;;;;;;;10.35;5.05;;;;;;;21.34;51.34;95296.41;5049505;28;20519;-75
2022/08/06 00:33:27;;;;;;;7.63;4.65;;;;;;;21.30;51.92;95299.88;5050260;28;20064;-76
2022/08/06 00:35:52;;;;;;;6.18;5.03;;;;;;;21.26;51.66;95298.72;5049652;28;20025;-75
2022/08/06 00:38:17;;;;;;;6.78;5.10;;;;;;;21.22;51.89;95306.56;5049505;28;20037;-75
2022/08/06 00:40:43;;;;;;;7.07;4.60;;;;;;;21.22;51.98;95307.41;5049530;28;20017;-75
2022/08/06 00:43:08;;;;;;;6.07;4.90;;;;;;;21.17;51.77;95307.31;5049133;28;20498;-76
2022/08/06 00:45:34;;;;;;;6.20;5.32;;;;;;;21.15;51.51;95308.66;5050066;28;20036;-75
2022/08/06 00:48:00;;;;;;;5.90;5.00;;;;;;;21.10;52.47;95312.91;5049033;28;20033;-75
2022/08/06 00:50:25;;;;;;;6.20;5.13;;;;;;;21.03;52.26;95309.53;5049827;28;20064;-75
2022/08/06 00:52:51;;;;;;;7.78;4.78;;;;;;;20.99;52.13;95313.81;5049281;28;20069;-77
2022/08/06 00:55:16;;;;;;;7.32;4.90;;;;;;;20.97;52.23;95307.81;5049378;28;20029;-75
2022/08/06 00:57:42;;;;;;;6.18;4.85;;;;;;;20.93;52.31;95318.38;5049546;28;20495;-75
2022/08/06 01:00:08;;;;;;;4.93;4.43;;;;;;;20.83;52.25;95313.53;5048472;28;20056;-76
2022/08/06 01:02:33;;;;;;;6.25;5.40;;;;;;;20.90;52.12;95318.00;5049530;28;20100;-75
2022/08/06 01:04:59;;;;;;;5.85;5.03;;;;;;;20.87;52.10;95314.72;5048725;28;20025;-76
2022/08/06 01:07:24;;;;;;;6.75;4.93;;;;;;;20.92;52.29;95318.63;5049205;28;20072;-76
2022/08/06 01:09:50;;;;;;;5.72;4.80;;;;;;;20.93;52.69;95320.25;5049111;28;20036;-76
2022/08/06 01:12:16;;;;;;;9.52;4.50;;;;;;;20.92;52.02;95313.16;5048909;28;20234;-75
2022/08/06 01:14:42;;;;;;;5.93;5.18;;;;;;;20.90;51.95;95307.94;5049402;28;20032;-77
2022/08/06 01:17:13;;;;;;;6.72;4.63;;;;;;;20.87;52.16;95314.72;5048833;28;20021;-76
2022/08/06 01:19:47;;;;;;;7.85;4.85;;;;;;;20.89;52.11;95311.75;5031939;28;20021;-75
2022/08/06 01:22:31;;;;;;;5.78;4.80;;;;;;;20.86;51.55;95313.03;5048060;28;20100;-75
2022/08/06 01:25:13;;;;;;;6.35;4.88;;;;;;;20.85;52.10;95308.66;5048941;28;20039;-75
2022/08/06 01:27:57;;;;;;;;;;;;;;;20.85;51.92;95308.66;5048350;28;20033;-75
2022/08/06 01:30:26;;;;;;;5.75;4.40;;;;;;;20.90;51.43;95312.53;5048520;28;19919;-77
2022/08/06 01:33:00;;;;;;;6.32;5.15;;;;;;;20.93;51.50;95307.47;5031313;28;20039;-74
2022/08/06 01:35:29;;;;;;;5.05;4.55;;;;;;;20.95;51.33;95307.22;5048448;28;20037;-75
2022/08/06 01:38:00;;;;;;;8.15;5.25;;;;;;;20.93;51.90;95312.91;5030795;28;20120;-76
2022/08/06 01:40:28;;;;;;;7.82;4.88;;;;;;;20.89;51.89;95303.56;5031047;28;20029;-75
2022/08/06 01:42:54;;;;;;;7.07;4.90;;;;;;;20.86;52.03;95298.59;5047284;28;20349;-75
2022/08/06 01:45:20;;;;;;;5.10;4.60;;;;;;;20.84;51.65;95303.47;5046928;28;20419;-76
2022/08/06 01:47:47;;;;;;;5.30;4.78;;;;;;;20.79;52.06;95296.03;5048036;28;20017;-75
2022/08/06 01:50:15;;;;;;;7.30;5.07;;;;;;;20.73;52.01;95302.47;5048128;28;20028;-75
2022/08/06 01:52:41;;;;;;;5.88;4.60;;;;;;;20.69;51.83;95306.72;5030028;28;20093;-75
2022/08/06 01:55:13;;;;;;;10.00;5.22;;;;;;;20.70;51.69;95292.88;5030686;28;20040;-75
2022/08/06 01:57:40;;;;;;;6.57;5.23;;;;;;;20.70;51.50;95292.06;5030612;28;20021;-75
2022/08/06 02:00:06;;;;;;;6.75;4.65;;;;;;;20.67;51.43;95295.28;5046675;28;20024;-75
2022/08/06 02:02:32;;;;;;;6.45;4.80;;;;;;;20.67;51.22;95293.34;5048324;28;20109;-75
2022/08/06 02:04:58;;;;;;;5.93;4.80;;;;;;;20.62;51.66;95283.19;5046154;28;20025;-74
2022/08/06 02:07:24;;;;;;;9.23;5.00;;;;;;;20.62;51.19;95283.19;5047782;28;20037;-75
2022/08/06 02:09:50;;;;;;;9.65;5.45;;;;;;;20.60;51.17;95284.53;5046214;28;20036;-75
2022/08/06 02:12:18;;;;;;;7.43;4.78;;;;;;;20.49;51.31;95278.06;5047954;28;20033;-76
2022/08/06 02:14:57;;;;;;;6.38;4.82;;;;;;;20.42;51.68;95277.38;5047891;28;20048;-76
2022/08/06 02:17:28;;;;;;;8.13;5.40;;;;;;;20.33;51.99;95277.75;5046615;28;20120;-76
2022/08/06 02:19:54;;;;;;;5.82;5.05;;;;;;;20.27;52.34;95276.00;5046925;28;20503;-76
2022/08/06 02:22:20;;;;;;;10.20;5.72;;;;;;;20.19;53.06;95276.38;5029788;28;20032;-76
2022/08/06 02:24:46;;;;;;;7.22;5.13;;;;;;;20.21;53.21;95274.25;5030082;28;20021;-76
2022/08/06 02:27:11;;;;;;;8.60;5.82;;;;;;;20.18;53.39;95269.28;5046095;28;20021;-78
2022/08/06 02:29:37;;;;;;;9.10;5.05;;;;;;;20.18;53.01;95277.47;5046346;28;20013;-77
2022/08/06 02:32:03;;;;;;;8.10;5.40;;;;;;;20.19;53.04;95276.38;5046142;28;20025;-77
2022/08/06 02:34:28;;;;;;;5.30;4.80;;;;;;;20.16;53.05;95274.16;5047597;28;20423;-77
2022/08/06 02:37:00;;;;;;;7.03;5.05;;;;;;;20.12;52.84;95271.91;5046661;28;20371;-78
2022/08/06 02:39:27;;;;;;;6.28;5.60;;;;;;;20.08;53.04;95276.19;5047063;28;20098;-75
2022/08/06 02:42:03;;;;;;;9.90;5.55;;;;;;;20.06;53.16;95278.31;5046468;28;20074;-75
2022/08/06 02:44:44;;;;;;;5.90;5.30;;;;;;;20.08;52.92;95284.38;5047727;28;20044;-75
2022/08/06 02:47:23;;;;;;;9.73;5.90;;;;;;;20.07;52.75;95285.41;5046263;28;20067;-75
2022/08/06 02:49:50;;;;;;;9.52;5.45;;;;;;;20.12;52.91;95284.69;5028979;28;20036;-76
2022/08/06 02:52:17;;;;;;;6.43;4.97;;;;;;;20.15;52.84;95286.97;5045910;28;20025;-76
2022/08/06 02:54:50;;;;;;;6.43;5.13;;;;;;;20.09;53.01;95280.56;5045690;28;20217;-75
2022/08/06 02:57:45;;;;;;;5.50;4.88;;;;;;;20.00;53.29;95284.72;5029656;28;20048;-75
2022/08/06 03:00:11;;;;;;;5.53;4.80;;;;;;;19.99;53.29;95274.91;5045327;28;20147;-75
2022/08/06 03:02:38;;;;;;;6.32;5.72;;;;;;;19.95;53.62;95288.16;5047000;28;20063;-75
2022/08/06 03:05:05;;;;;;;6.55;5.18;;;;;;;19.91;53.60;95286.16;5029273;28;20545;-75
2022/08/06 03:07:31;;;;;;;5.75;5.00;;;;;;;19.95;53.41;95284.59;5045349;28;20037;-75
2022/08/06 03:09:57;;;;;;;5.72;4.90;;;;;;;19.91;53.32;95284.25;5012036;28;20515;-75
2022/08/06 03:12:22;;;;;;;6.05;5.45;;;;;;;19.85;53.46;95277.88;5045600;28;20029;-76
2022/08/06 03:14:48;;;;;;;7.55;4.80;;;;;;;19.88;53.46;95290.16;5044968;28;20816;-75
2022/08/06 03:17:13;;;;;;;6.97;5.30;;;;;;;19.83;53.34;95290.88;5045612;28;20450;-76
2022/08/06 03:19:39;;;;;;;6.22;5.00;;;;;;;19.85;53.13;95288.75;5028438;28;20476;-75
2022/08/06 03:22:05;;;;;;;7.68;5.88;;;;;;;19.86;53.15;95284.97;5045529;28;20021;-75
2022/08/06 03:24:30;;;;;;;7.50;5.32;;;;;;;19.79;53.30;95289.72;5045243;28;20059;-75
2022/08/06 03:26:56;;;;;;;5.78;5.13;;;;;;;19.75;53.39;95293.97;5028577;28;20029;-75
2022/08/06 03:29:23;;;;;;;6.07;4.85;;;;;;;19.71;53.62;95287.38;5045479;28;20025;-75
2022/08/06 03:31:48;;;;;;;8.85;5.47;;;;;;;19.69;53.42;95284.03;5044691;28;20041;-76
2022/08/06 03:34:14;;;;;;;5.78;5.13;;;;;;;19.64;53.73;95282.88;5028724;28;20137;-76
2022/08/06 03:36:39;;;;;;;8.88;5.90;;;;;;;19.49;54.09;95288.00;5044420;28;20036;-76
2022/08/06 03:39:06;;;;;;;6.82;6.07;;;;;;;19.53;53.93;95286.44;5028725;28;20041;-76
2022/08/06 03:41:34;;;;;;;6.60;5.60;;;;;;;19.49;54.13;95282.56;5046214;28;20573;-76
2022/08/06 03:43:59;;;;;;;10.48;5.95;;;;;;;19.47;54.18;95279.22;5028744;28;20017;-78
2022/08/06 03:46:27;;;;;;;6.60;5.43;;;;;;;19.43;54.07;95297.06;5046651;28;20028;-76
2022/08/06 03:48:53;;;;;;;8.77;5.55;;;;;;;19.42;54.54;95289.97;5044354;28;20029;-75
2022/08/06 03:51:20;;;;;;;6.82;5.65;;;;;;;19.38;54.57;95285.03;5044873;28;20530;-75
2022/08/06 03:53:46;;;;;;;7.95;5.85;;;;;;;19.46;54.67;95289.28;5044395;28;20435;-76
2022/08/06 03:56:14;;;;;;;14.32;5.63;;;;;;;19.41;54.70;95281.00;5028341;28;20415;-77
2022/08/06 03:58:40;;;;;;;9.63;5.72;;;;;;;19.48;55.51;95294.47;5044620;28;20040;-75
2022/08/06 04:01:07;;;;;;;6.95;6.13;;;;;;;19.49;55.26;95301.59;5044525;28;20416;-77
2022/08/06 04:03:34;;;;;;;8.38;5.60;;;;;;;19.49;55.28;95305.13;5044965;28;20089;-75
2022/08/06 04:05:59;;;;;;;6.97;5.88;;;;;;;19.48;54.84;95305.34;5043895;28;20033;-76
2022/08/06 04:08:25;;;;;;;10.27;6.43;;;;;;;19.42;54.93;95303.59;5044763;28;20032;-75
2022/08/06 04:10:50;;;;;;;10.52;6.47;;;;;;;19.45;54.64;95309.38;5043996;28;20445;-76
2022/08/06 04:13:19;;;;;;;8.40;6.03;;;;;;;19.50;54.61;95314.94;5044912;28;20476;-76
2022/08/06 04:15:44;;;;;;;7.57;6.28;;;;;;;19.54;54.43;95312.56;5044076;28;20028;-75
2022/08/06 04:18:11;;;;;;;8.63;5.60;;;;;;;19.63;54.33;95316.59;5046273;28;20029;-75
2022/08/06 04:20:38;;;;;;;8.95;5.55;;;;;;;19.66;54.15;95317.16;5044603;28;20021;-76
2022/08/06 04:23:03;;;;;;;8.35;5.88;;;;;;;19.74;54.27;95316.81;5047056;28;20479;-76
2022/08/06 04:25:38;;;;;;;6.63;5.57;;;;;;;19.77;54.04;95310.91;5045913;28;20025;-76
2022/08/06 04:28:05;;;;;;;6.68;5.85;;;;;;;19.88;53.61;95317.38;5027882;28;20032;-76
2022/08/06 04:30:30;;;;;;;7.88;5.78;;;;;;;20.01;53.22;95322.56;5044918;28;20048;-77
2022/08/06 04:32:55;;;;;;;7.03;6.07;;;;;;;20.11;53.86;95319.28;5043949;28;20017;-76
2022/08/06 04:35:21;;;;;;;7.75;6.30;;;;;;;20.19;54.34;95320.78;5046390;28;20029;-75
2022/08/06 04:37:47;;;;;;;9.10;6.13;;;;;;;20.31;54.48;95328.94;5027984;28;20032;-75
2022/08/06 04:40:12;;;;;;;10.52;6.10;;;;;;;20.38;54.48;95329.59;5045534;28;20033;-77
2022/08/06 04:42:38;;;;;;;13.40;6.65;;;;;;;20.49;54.39;95327.09;5046134;28;20028;-77
2022/08/06 04:45:04;;;;;;;10.43;6.38;;;;;;;20.63;54.29;95335.78;5044018;28;20017;-75
2022/08/06 04:47:30;;;;;;;7.97;6.18;;;;;;;20.75;53.17;95330.28;5044731;28;20060;-75
2022/08/06 04:49:56;;;;;;;8.73;5.55;;;;;;;20.87;52.44;95336.50;5045409;28;20052;-75
2022/08/06 04:52:22;;;;;;;7.82;5.75;;;;;;;20.99;50.69;95341.09;5044919;28;20024;-76
2022/08/06 04:54:47;;;;;;;9.00;6.10;;;;;;;21.12;51.40;95337.22;5045512;28;20036;-76
2022/08/06 04:57:13;;;;;;;10.82;6.13;;;;;;;21.25;52.13;95346.97;5045686;28;20025;-75
2022/08/06 04:59:38;;;;;;;7.88;6.38;;;;;;;21.38;52.11;95347.75;5045754;28;20385;-76
2022/08/06 05:02:04;;;;;;;12.77;6.78;;;;;;;21.51;52.26;95343.81;5045202;28;20478;-76
2022/08/06 05:04:29;;;;;;;6.47;5.63;;;;;;;21.61;51.16;95336.66;5046071;28;20454;-77
2022/08/06 05:07:18;;;;;;;13.50;6.00;;;;;;;21.75;51.52;95333.56;5027124;28;20049;-75
2022/08/06 05:09:43;;;;;;;6.20;5.57;;;;;;;21.85;50.63;95333.75;5045715;28;20090;-75
2022/08/06 05:12:45;;;;;;;8.32;5.57;;;;;;;21.99;49.09;95333.38;5027966;28;20021;-75
2022/08/06 05:15:15;;;;;;;5.97;5.38;;;;;;;22.10;48.67;95335.16;5047660;28;20025;-75
2022/08/06 05:17:42;;;;;;;7.53;5.88;;;;;;;22.18;47.33;95324.88;5047979;28;20029;-76
2022/08/06 05:20:15;;;;;;;6.30;5.60;;;;;;;22.34;46.67;95334.09;5046935;28;20025;-77
2022/08/06 05:22:41;;;;;;;7.15;6.03;;;;;;;22.46;47.35;95339.41;5047835;28;20478;-78
2022/08/06 05:25:07;;;;;;;6.00;5.40;;;;;;;22.56;48.62;95336.81;5047092;28;20075;-75
2022/08/06 05:27:32;;;;;;;6.22;5.20;;;;;;;22.65;46.84;95339.13;5047894;28;20056;-77
2022/08/06 05:29:57;;;;;;;6.18;5.50;;;;;;;22.80;47.41;95336.53;5031057;28;20519;-76
2022/08/06 05:32:23;;;;;;;6.43;5.75;;;;;;;22.90;47.05;95335.00;5047211;28;20025;-76
2022/08/06 05:34:48;;;;;;;6.18;5.35;;;;;;;23.00;46.17;95339.72;5047523;28;20383;-76
2022/08/06 05:37:14;;;;;;;7.32;5.50;;;;;;;23.14;45.76;95335.50;5048163;28;20013;-76
2022/08/06 05:39:39;;;;;;;6.97;5.10;;;;;;;23.12;45.53;95339.59;5049373;28;20032;-76
2022/08/06 05:42:05;;;;;;;8.85;5.70;;;;;;;23.27;45.10;95338.88;5048231;28;20419;-76
2022/08/06 05:44:30;;;;;;;5.90;5.30;;;;;;;23.42;44.55;95341.78;5048858;28;20067;-76
2022/08/06 05:47:13;;;;;;;7.05;5.15;;;;;;;23.53;45.06;95341.84;5048412;28;20032;-78
2022/08/06 05:49:43;;;;;;;7.32;6.05;;;;;;;23.63;46.04;95335.63;5047196;28;20108;-77
2022/08/06 05:52:17;;;;;;;7.63;5.45;;;;;;;23.80;45.38;95347.25;5047538;28;20040;-76
2022/08/06 05:55:04;;;;;;;6.65;5.90;;;;;;;23.88;44.43;95342.34;5030663;28;20380;-77
2022/08/06 05:57:38;;;;;;;8.10;6.13;;;;;;;23.95;44.59;95332.84;5048430;28;20036;-77
2022/08/06 06:00:10;;;;;;;5.70;5.10;;;;;;;23.77;44.98;95330.50;5030850;28;20159;-77
2022/08/06 06:02:37;;;;;;;6.68;5.13;;;;;;;24.03;43.74;95333.41;5046892;28;21001;-77
2022/08/06 06:05:02;;;;;;;6.80;5.70;;;;;;;23.95;44.08;95329.25;5047136;28;20553;-77
2022/08/06 06:07:28;;;;;;;8.00;5.72;;;;;;;24.02;43.86;95332.56;5046250;28;20136;-76
2022/08/06 06:09:54;;;;;;;6.70;5.50;;;;;;;23.99;43.59;95324.88;5047345;28;20025;-76
2022/08/06 06:12:19;;;;;;;7.63;5.55;;;;;;;24.04;43.72;95330.41;5046278;28;20040;-76
2022/08/06 06:14:47;;;;;;;8.73;5.15;;;;;;;24.30;43.37;95327.81;5048340;28;20028;-76
2022/08/06 06:17:31;;;;;;;8.52;5.38;;;;;;;24.47;42.55;95321.31;5048265;28;20070;-78
2022/08/06 06:20:22;;;;;;;6.15;5.40;;;;;;;24.51;42.59;95322.41;5048058;28;20037;-78
2022/08/06 06:23:11;;;;;;;6.15;5.32;;;;;;;24.70;42.33;95321.91;5047925;28;20029;-75
2022/08/06 06:25:59;;;;;;;7.85;5.43;;;;;;;24.82;42.19;95327.16;5047276;28;20037;-75
2022/08/06 06:28:33;;;;;;;7.10;5.35;;;;;;;25.05;42.90;95322.28;5046384;28;20052;-76
2022/08/06 06:31:09;;;;;;;8.73;5.97;;;;;;;25.15;42.17;95325.03;5048135;28;20029;-77
2022/08/06 06:33:43;;;;;;;9.35;5.45;;;;;;;25.17;42.28;95322.84;5045563;28;20388;-77
2022/08/06 06:36:34;;;;;;;5.60;5.10;;;;;;;25.01;41.98;95319.25;5046913;28;20118;-77
2022/08/06 06:39:14;;;;;;;9.57;6.05;;;;;;;24.92;42.30;95315.41;5047753;28;20037;-77
2022/08/06 06:41:46;;;;;;;6.45;5.50;;;;;;;24.86;42.94;95316.47;5030112;28;20025;-77
2022/08/06 06:44:38;;;;;;;10.18;5.30;;;;;;;25.19;42.52;95319.81;5046577;28;20036;-77
2022/08/06 06:47:06;;;;;;;7.22;5.07;;;;;;;25.52;41.91;95309.38;5031502;28;20044;-76
2022/08/06 06:49:38;;;;;;;6.30;5.28;;;;;;;25.59;41.50;95300.88;5046306;28;20033;-77
2022/08/06 06:52:10;;;;;;;7.25;4.80;;;;;;;25.58;41.11;95295.66;5046477;28;20032;-77
2022/08/06 06:54:39;;;;;;;6.63;5.15;;;;;;;25.64;41.42;95300.06;5029983;28;20029;-76
2022/08/06 06:57:06;;;;;;;8.65;5.03;;;;;;;25.83;41.58;95302.25;5046602;28;20033;-76
2022/08/06 06:59:33;;;;;;;7.63;5.10;;;;;;;25.95;41.56;95297.25;5045744;28;20036;-77
2022/08/06 07:01:59;;;;;;;6.28;5.07;;;;;;;26.07;39.82;95296.94;5029602;28;20029;-77
2022/08/06 07:04:24;;;;;;;6.97;4.70;;;;;;;26.07;41.19;95290.63;5028704;28;20070;-76
2022/08/06 07:06:52;;;;;;;6.28;5.10;;;;;;;25.95;40.38;95296.44;5046875;28;20053;-76
2022/08/06 07:09:20;;;;;;;8.27;5.00;;;;;;;25.55;41.59;95286.88;5029481;28;20555;-77
2022/08/06 07:11:45;;;;;;;9.18;4.97;;;;;;;25.76;41.25;95283.31;5029228;28;20412;-78
2022/08/06 07:14:11;;;;;;;7.30;4.50;;;;;;;25.51;41.79;95283.03;5045996;28;20496;-78
2022/08/06 07:16:37;;;;;;;6.75;4.95;;;;;;;25.45;41.79;95289.63;5047760;28;20048;-77
2022/08/06 07:19:06;;;;;;;6.13;5.15;;;;;;;25.41;42.14;95288.53;5047097;28;20045;-76
2022/08/06 07:21:31;;;;;;;5.78;4.60;;;;;;;25.68;42.14;95284.69;5046454;28;20021;-77
2022/08/06 07:23:56;;;;;;;7.47;5.60;;;;;;;25.32;41.58;95280.03;5028828;28;20028;-78
2022/08/06 07:26:23;;;;;;;6.25;4.70;;;;;;;25.41;41.32;95272.88;5045527;28;20021;-78
2022/08/06 07:28:49;;;;;;;8.38;4.63;;;;;;;25.49;41.72;95279.75;5046755;28;20075;-76
2022/08/06 07:31:15;;;;;;;7.38;4.88;;;;;;;25.75;41.63;95267.91;5029218;28;20036;-77
2022/08/06 07:33:42;;;;;;;9.02;4.63;;;;;;;25.57;41.92;95272.06;5048429;28;20025;-78
2022/08/06 07:36:07;;;;;;;7.03;4.72;;;;;;;25.86;40.75;95264.03;5045532;28;20017;-78
2022/08/06 07:38:33;;;;;;;6.75;4.63;;;;;;;26.10;40.82;95265.34;5046756;28;20090;-77
2022/08/06 07:41:00;;;;;;;7.82;5.38;;;;;;;26.34;40.37;95271.03;5045484;28;20111;-76
2022/08/06 07:43:53;;;;;;;5.63;4.85;;;;;;;26.47;40.25;95255.03;5046402;28;20017;-76
2022/08/06 07:46:20;;;;;;;7.65;5.05;;;;;;;26.70;39.22;95261.75;5045193;28;20028;-77
2022/08/06 07:48:52;;;;;;;6.50;5.70;;;;;;;26.56;40.21;95258.00;5029125;28;20450;-75
2022/08/06 07:51:17;;;;;;;5.80;4.80;;;;;;;26.81;39.76;95261.69;5044810;28;20515;-77
2022/08/06 07:53:43;;;;;;;7.90;4.93;;;;;;;27.15;39.05;95252.66;5046462;28;20021;-76
2022/08/06 07:56:09;;;;;;;7.93;4.95;;;;;;;27.24;38.79;95253.69;5045984;28;20163;-76
2022/08/06 07:58:35;;;;;;;6.53;4.70;;;;;;;27.27;38.40;95255.03;5028821;28;20138;-76
2022/08/06 08:01:00;;;;;;;9.20;4.80;;;;;;;27.30;38.32;95254.47;5044646;28;20028;-78
2022/08/06 08:06:18;;;;;;;5.20;4.22;;;;;;;27.55;38.63;95249.00;5031106;28;20083;-77
2022/08/06 08:08:45;;;;;;;7.32;4.90;;;;;;;27.76;37.68;95247.69;5044740;28;20082;-77
2022/08/06 08:11:11;;;;;;;6.47;4.55;;;;;;;27.82;37.82;95244.88;5028746;28;20033;-76
2022/08/06 08:13:36;;;;;;;4.97;4.28;;;;;;;27.92;38.12;95244.78;5027993;28;20063;-76
2022/08/06 08:16:02;;;;;;;6.25;4.55;;;;;;;28.12;37.99;95248.38;5045141;28;20021;-76
2022/08/06 08:18:30;;;;;;;6.18;4.57;;;;;;;28.21;37.75;95251.31;5029339;28;20037;-77
2022/08/06 08:20:56;;;;;;;5.10;4.38;;;;;;;28.37;37.70;95240.94;5045866;28;20063;-76
2022/08/06 08:23:22;;;;;;;5.18;3.97;;;;;;;28.41;36.84;95239.22;5045484;28;20033;-78
2022/08/06 08:25:47;;;;;;;4.90;4.40;;;;;;;28.56;37.28;95232.69;5044337;28;20530;-78
2022/08/06 08:28:13;;;;;;;6.70;4.25;;;;;;;28.53;36.71;95236.03;5045770;28;20036;-78
2022/08/06 08:30:42;;;;;;;6.18;4.18;;;;;;;28.59;36.35;95234.00;5045329;28;20036;-77
2022/08/06 08:33:08;;;;;;;4.55;4.13;;;;;;;28.85;37.45;95241.91;5045722;28;20020;-77
2022/08/06 08:35:33;;;;;;;9.27;4.40;;;;;;;28.92;36.40;95241.53;5045480;28;20541;-77
2022/08/06 08:37:59;;;;;;;4.43;3.85;;;;;;;28.71;34.88;95242.66;5045922;28;20472;-77
2022/08/06 08:40:24;;;;;;;4.60;3.60;;;;;;;28.87;35.01;95236.94;5045748;28;20021;-77
2022/08/06 08:42:55;;;;;;;5.00;3.60;;;;;;;29.10;35.33;95237.16;5044423;28;20106;-76
2022/08/06 08:45:21;;;;;;;4.38;3.67;;;;;;;29.14;34.32;95229.91;5045765;28;20492;-77
2022/08/06 08:47:51;;;;;;;5.72;3.60;;;;;;;29.03;33.79;95237.53;5045241;28;20031;-77
2022/08/06 08:50:22;;;;;;;6.70;3.83;;;;;;;29.10;34.23;95231.63;5049905;28;20025;-78
2022/08/06 08:52:49;;;;;;;4.40;3.60;;;;;;;28.91;33.87;95234.38;5049118;28;20029;-78
2022/08/06 08:55:16;;;;;;;7.75;3.67;;;;;;;29.05;34.10;95229.75;5049415;28;20475;-77
2022/08/06 08:57:41;;;;;;;3.72;3.20;;;;;;;29.16;33.18;95229.59;5032209;28;20028;-77
2022/08/06 09:00:07;;;;;;;5.40;3.30;;;;;;;29.24;33.77;95226.94;5031727;28;20479;-78
2022/08/06 09:02:33;;;;;;;3.78;3.30;;;;;;;29.30;34.01;95224.09;5049423;28;20082;-77
2022/08/06 09:04:58;;;;;;;4.72;3.45;;;;;;;29.51;33.66;95219.03;5031578;28;20533;-78
2022/08/06 09:07:24;;;;;;;6.72;3.33;;;;;;;29.74;32.95;95221.97;5049005;28;20044;-76
2022/08/06 09:09:49;;;;;;;5.28;3.38;;;;;;;29.64;33.12;95217.44;5047692;28;20028;-76
2022/08/06 09:12:15;;;;;;;3.83;2.70;;;;;;;29.67;32.69;95229.81;5031212;28;20025;-77
2022/08/06 09:14:43;;;;;;;7.32;3.33;;;;;;;29.63;33.23;95215.81;5031211;28;20021;-77
2022/08/06 09:17:09;;;;;;;3.63;3.25;;;;;;;29.63;32.53;95217.75;5049013;28;20021;-77
2022/08/06 09:19:34;;;;;;;3.75;3.00;;;;;;;29.71;31.97;95220.63;5048736;28;20032;-77
2022/08/06 09:22:00;;;;;;;4.95;3.42;;;;;;;29.72;31.69;95219.50;5047371;28;20484;-77
2022/08/06 09:24:25;;;;;;;5.72;3.00;;;;;;;29.74;31.33;95211.72;5048759;28;20037;-77
2022/08/06 09:27:14;;;;;;;4.32;3.17;;;;;;;29.61;32.24;95215.31;5048134;28;20025;-76
2022/08/06 09:29:56;;;;;;;3.58;3.15;;;;;;;29.63;31.84;95217.75;5048717;28;20029;-76
2022/08/06 09:32:42;;;;;;;6.75;3.47;;;;;;;29.56;32.53;95212.59;5048593;28;20056;-76
2022/08/06 09:35:24;;;;;;;4.28;3.03;;;;;;;29.50;32.72;95211.88;5048477;28;20102;-78
2022/08/06 09:37:50;;;;;;;4.57;3.72;;;;;;;29.37;33.14;95208.78;5049004;28;20482;-76
2022/08/06 09:40:19;;;;;;;5.82;3.50;;;;;;;29.35;33.61;95212.97;5047005;28;20037;-76
2022/08/06 09:42:49;;;;;;;3.58;3.13;;;;;;;29.34;33.46;95209.38;5047702;28;20037;-78
2022/08/06 09:45:16;;;;;;;4.15;3.67;;;;;;;29.44;33.92;95208.38;5048702;28;20021;-78
2022/08/06 09:47:41;;;;;;;5.65;3.13;;;;;;;29.47;33.37;95213.28;5048436;28;20083;-76
2022/08/06 09:50:07;;;;;;;8.60;3.58;;;;;;;29.51;32.68;95212.69;5047429;28;20025;-77
2022/08/06 09:52:33;;;;;;;6.10;3.28;;;;;;;29.34;32.96;95208.59;5047820;28;20526;-77
2022/08/06 09:54:58;;;;;;;3.85;3.45;;;;;;;29.35;33.04;95210.22;5048405;28;20025;-78
2022/08/06 09:57:25;;;;;;;3.83;3.45;;;;;;;29.31;34.09;95204.47;5047952;28;20029;-77
2022/08/06 09:59:50;;;;;;;5.97;3.58;;;;;;;29.43;33.27;95208.69;5048513;28;20032;-78
2022/08/06 10:02:17;;;;;;;5.85;3.58;;;;;;;29.39;33.69;95210.44;5046896;28;20495;-78
2022/08/06 10:04:43;;;;;;;4.53;4.00;;;;;;;29.37;34.23;95214.28;5048389;28;20028;-78
2022/08/06 10:07:08;;;;;;;4.25;3.65;;;;;;;29.42;34.71;95207.84;5048227;28;20048;-78
2022/08/06 10:09:35;;;;;;;4.70;3.75;;;;;;;29.34;34.04;95197.53;5047919;28;20044;-78
2022/08/06 10:12:00;;;;;;;5.72;3.80;;;;;;;29.41;34.00;95197.94;5047986;28;20036;-78
2022/08/06 10:14:33;;;;;;;3.75;3.33;;;;;;;29.34;33.82;95203.84;5046457;28;20102;-78
2022/08/06 10:17:21;;;;;;;3.90;3.50;;;;;;;29.48;32.47;95192.03;5048626;28;20060;-77
2022/08/06 10:20:03;;;;;;;6.25;3.50;;;;;;;29.45;32.61;95196.22;5047116;28;20155;-77
2022/08/06 10:22:28;;;;;;;5.53;3.40;;;;;;;29.44;33.97;95180.75;5047709;28;20044;-78
2022/08/06 10:24:54;;;;;;;4.50;3.28;;;;;;;29.58;32.93;95188.28;5046526;28;20025;-77
2022/08/06 10:27:21;;;;;;;7.95;3.80;;;;;;;29.67;31.94;95189.22;5047330;28;20075;-78
2022/08/06 10:29:54;;;;;;;4.53;3.72;;;;;;;29.57;32.36;95187.44;5047534;28;20044;-77
2022/08/06 10:32:25;;;;;;;4.43;3.47;;;;;;;29.59;31.79;95193.50;5047106;28;20519;-78
2022/08/06 10:34:51;;;;;;;4.00;3.60;;;;;;;29.53;31.28;95189.19;5029981;28;20032;-77
2022/08/06 10:37:16;;;;;;;5.20;3.40;;;;;;;29.52;31.69;95192.25;5046272;28;20263;-78
2022/08/06 10:39:45;;;;;;;4.45;3.53;;;;;;;29.52;31.16;95187.53;5047308;28;20622;-78
2022/08/06 10:42:11;;;;;;;4.85;3.30;;;;;;;29.57;31.88;95192.94;5046269;28;20468;-76
2022/08/06 10:44:36;;;;;;;4.40;3.30;;;;;;;29.56;31.22;95179.44;5028904;28;20028;-78
2022/08/06 10:47:02;;;;;;;3.97;3.10;;;;;;;29.45;31.74;95182.41;5029535;28;20036;-78
2022/08/06 10:49:29;;;;;;;4.65;2.80;;;;;;;29.42;30.98;95177.47;5045672;28;20029;-78
2022/08/06 10:51:54;;;;;;;4.38;3.28;;;;;;;29.51;30.98;95176.78;5046132;28;20083;-77
2022/08/06 10:54:20;;;;;;;7.05;3.70;;;;;;;29.64;32.05;95173.25;5046016;28;20029;-78
2022/08/06 10:56:46;;;;;;;6.07;3.22;;;;;;;29.77;31.33;95171.59;5046070;28;20021;-77
2022/08/06 10:59:15;;;;;;;3.50;2.88;;;;;;;29.88;31.69;95172.22;5047414;28;20404;-77
2022/08/06 11:02:17;;;;;;;3.55;3.25;;;;;;;30.04;30.83;95166.34;5046689;28;20021;-76
2022/08/06 11:04:56;;;;;;;8.63;3.20;;;;;;;29.81;30.67;95166.28;5046910;28;20028;-77
2022/08/06 11:07:52;;;;;;;3.72;3.00;;;;;;;30.01;31.89;95164.22;5045511;28;20126;-77
2022/08/06 11:10:29;;;;;;;3.67;3.22;;;;;;;29.98;30.68;95166.47;5044321;28;20412;-78
2022/08/06 11:13:13;;;;;;;5.55;3.15;;;;;;;29.89;30.81;95168.31;5045139;28;20133;-77
2022/08/06 11:15:40;;;;;;;4.60;3.50;;;;;;;29.83;31.24;95164.84;5046424;28;20116;-78
2022/08/06 11:18:09;;;;;;;5.20;3.33;;;;;;;29.73;31.37;95168.63;5046621;28;20495;-78
2022/08/06 11:20:42;;;;;;;6.88;3.60;;;;;;;29.81;30.37;95166.28;5046450;28;20040;-78
2022/08/06 11:23:13;;;;;;;5.20;3.85;;;;;;;29.76;30.74;95163.63;5045945;28;20043;-78
2022/08/06 11:25:46;;;;;;;3.88;3.47;;;;;;;29.82;30.56;95156.88;5046379;28;20017;-77
2022/08/06 11:28:19;;;;;;;7.10;4.13;;;;;;;29.90;31.05;95156.16;5045798;28;20094;-77
2022/08/06 11:30:52;;;;;;;6.60;4.00;;;;;;;29.80;31.08;95159.13;5046417;28;20052;-78
2022/08/06 11:33:28;;;;;;;3.78;3.42;;;;;;;30.11;30.52;95161.25;5046112;28;20029;-79
2022/08/06 11:35:54;;;;;;;5.07;3.47;;;;;;;30.16;30.17;95163.91;5044381;28;20039;-78
2022/08/06 11:38:47;;;;;;;7.00;3.60;;;;;;;30.07;30.56;95158.25;5044930;28;20442;-78
2022/08/06 11:41:42;;;;;;;5.50;4.05;;;;;;;30.55;29.34;95160.84;5045542;28;20163;-78
2022/08/06 11:44:07;;;;;;;7.05;3.72;;;;;;;30.63;29.13;95162.84;5045501;28;20388;-77
2022/08/06 11:46:39;;;;;;;4.93;3.60;;;;;;;30.92;29.45;95158.84;5045999;28;20618;-78